Baltimore, Maryland
Traffic Map
Current Weather Conditions
Baltimore, Maryland
Broken Clouds
Broken Clouds
58°
Feels Like: 58°
Wind Chill: 58° Ceiling: 1500
Heat Index: 58° Visibility: 7mi
Dew Point: 57° Wind: 0mph
Humidity: 97% Direction: ° ()
Pressure: 30.08in Gusts: 0mph
Raw Report DataKBWI 020754Z 00000KT 7SM BKN015 14/14 A3008 RMK AO2 SLP185 T01440139
Traffic Incident Summary
Active as of:
Severity:
Category:
InformationThere was an issue retrieving the traffic information for this location. Please try a different location or try again shortly.
Advertisements
Track Severe Weather on mobile